Time;durP1;ratioP1;P1;durP2;ratioP2;P2;SDS_P1;SDS_P2;PMS_P1;PMS_P2;Temp;Humidity;BMP_temperature;BMP_pressure;BME280_temperature;BME280_humidity;BME280_pressure;Samples;Min_cycle;Max_cycle;Signal;HPM_P1;HPM_P2
2022/10/17 00:01:21;;;;;;;34.38;6.18;;;;;;;20.96;100.00;98437.13;5009194;28;20115;-57
2022/10/17 00:03:46;;;;;;;37.25;6.55;;;;;;;20.71;100.00;98443.44;5011986;28;20069;-60
2022/10/17 00:06:13;;;;;;;37.00;6.15;;;;;;;20.21;100.00;98440.91;5009997;28;20144;-59
2022/10/17 00:08:40;;;;;;;32.65;5.75;;;;;;;20.03;100.00;98442.28;5011136;28;20036;-57
2022/10/17 00:11:18;;;;;;;34.05;5.82;;;;;;;19.83;100.00;98452.53;5012040;28;20720;-58
2022/10/17 00:13:45;;;;;;;35.30;6.13;;;;;;;20.45;100.00;98453.31;5011814;28;20053;-59
2022/10/17 00:16:10;;;;;;;36.95;6.25;;;;;;;20.42;100.00;98448.28;5012827;28;20045;-57
2022/10/17 00:18:35;;;;;;;32.53;6.03;;;;;;;20.39;100.00;98451.13;5014039;28;20056;-58
2022/10/17 00:21:01;;;;;;;44.67;7.43;;;;;;;20.28;100.00;98456.38;5006817;28;20037;-58
2022/10/17 00:23:27;;;;;;;35.95;6.85;;;;;;;19.72;100.00;98455.06;5012126;28;20648;-57
2022/10/17 00:26:00;;;;;;;39.33;6.75;;;;;;;20.91;100.00;98455.19;5014570;28;20041;-59
2022/10/17 00:28:26;;;;;;;25.38;5.13;;;;;;;21.17;100.00;98463.81;5018944;28;20029;-58
2022/10/17 00:30:56;;;;;;;38.47;6.80;;;;;;;20.41;100.00;98468.59;5015570;28;20087;-58
2022/10/17 00:33:22;;;;;;;32.45;6.53;;;;;;;20.13;100.00;98459.19;5016492;28;20419;-56
2022/10/17 00:35:47;;;;;;;33.80;6.63;;;;;;;19.76;100.00;98464.50;5012782;28;20455;-58
2022/10/17 00:38:12;;;;;;;41.33;6.80;;;;;;;19.59;100.00;98459.50;5014995;28;20025;-57
2022/10/17 00:40:38;;;;;;;29.75;6.38;;;;;;;20.07;100.00;98458.78;5015382;28;20060;-56
2022/10/17 00:43:03;;;;;;;39.75;7.25;;;;;;;19.97;100.00;98463.91;5014256;28;20033;-57
2022/10/17 00:45:30;;;;;;;44.00;7.38;;;;;;;19.95;100.00;98465.81;5015384;28;20037;-58
2022/10/17 00:48:08;;;;;;;32.67;6.10;;;;;;;20.22;100.00;98458.53;5015111;28;20025;-58
2022/10/17 00:50:37;;;;;;;34.35;7.28;;;;;;;19.64;100.00;98463.53;5017161;28;20492;-56
2022/10/17 00:53:04;;;;;;;39.53;7.75;;;;;;;19.77;100.00;98463.53;5014279;28;20025;-56
2022/10/17 00:55:37;;;;;;;44.80;8.60;;;;;;;19.58;100.00;98463.13;5018267;28;20093;-57
2022/10/17 00:58:05;;;;;;;40.65;7.18;;;;;;;19.64;100.00;98460.03;5015021;28;20048;-57
2022/10/17 01:00:30;;;;;;;41.42;7.40;;;;;;;19.67;100.00;98456.31;5012044;28;20029;-60
2022/10/17 01:02:55;;;;;;;42.85;7.93;;;;;;;19.98;100.00;98468.25;5014219;28;20021;-57
2022/10/17 01:05:21;;;;;;;39.08;7.43;;;;;;;19.80;100.00;98468.63;5014874;28;20663;-58
2022/10/17 01:07:49;;;;;;;33.75;6.32;;;;;;;19.65;100.00;98467.88;5017449;28;20502;-57
2022/10/17 01:10:15;;;;;;;29.83;5.90;;;;;;;20.29;100.00;98468.66;5012406;28;20755;-57
2022/10/17 01:12:40;;;;;;;39.42;6.85;;;;;;;19.75;100.00;98469.91;5013614;28;20017;-57
2022/10/17 01:15:12;;;;;;;34.20;6.30;;;;;;;20.03;100.00;98469.63;5016537;28;20076;-56
2022/10/17 01:18:12;;;;;;;43.63;7.38;;;;;;;19.74;100.00;98469.06;5014134;28;20092;-57
2022/10/17 01:20:43;;;;;;;34.88;6.00;;;;;;;19.97;100.00;98485.09;5012287;28;20042;-58
2022/10/17 01:23:33;;;;;;;31.23;6.03;;;;;;;19.67;100.00;98475.72;5011709;28;20860;-58
2022/10/17 01:26:20;;;;;;;33.60;6.28;;;;;;;19.51;100.00;98472.44;5013353;28;20053;-59
2022/10/17 01:29:07;;;;;;;44.50;7.15;;;;;;;19.43;100.00;98476.47;5012743;28;20041;-58
2022/10/17 01:31:45;;;;;;;37.70;5.78;;;;;;;20.15;100.00;98470.53;5013935;28;20033;-57
2022/10/17 01:34:50;;;;;;;30.13;5.60;;;;;;;19.99;100.00;98477.88;5012689;28;20025;-61
2022/10/17 01:37:26;;;;;;;35.85;6.13;;;;;;;19.20;100.00;98470.13;5015980;28;20053;-58
2022/10/17 01:40:03;;;;;;;45.88;7.28;;;;;;;19.36;100.00;98477.00;5012658;28;20080;-58
2022/10/17 01:42:36;;;;;;;38.75;6.65;;;;;;;19.44;100.00;98477.31;5012682;28;20074;-56
2022/10/17 01:45:24;;;;;;;37.05;5.65;;;;;;;20.23;100.00;98470.78;5013633;28;20536;-58
2022/10/17 01:47:52;;;;;;;37.60;7.05;;;;;;;19.76;100.00;98466.31;5012201;28;20052;-57
2022/10/17 01:50:24;;;;;;;29.17;6.00;;;;;;;19.52;100.00;98464.41;5014130;28;20034;-56
2022/10/17 01:52:55;;;;;;;34.75;6.20;;;;;;;19.49;100.00;98463.78;5013251;28;20143;-57
2022/10/17 01:55:27;;;;;;;31.35;5.35;;;;;;;20.51;100.00;98462.63;5014058;28;20071;-57
2022/10/17 01:57:58;;;;;;;;;;;;;;;20.25;100.00;98472.50;5011649;28;20037;-57
2022/10/17 02:00:26;;;;;;;36.70;6.07;;;;;;;19.41;100.00;98467.81;5009486;28;19921;-57
2022/10/17 02:02:59;;;;;;;33.70;5.93;;;;;;;18.90;100.00;98466.94;5011425;28;20030;-58
2022/10/17 02:05:29;;;;;;;30.42;5.25;;;;;;;19.81;100.00;98465.03;5012378;28;20034;-59
2022/10/17 02:07:55;;;;;;;31.65;5.43;;;;;;;19.24;100.00;98466.34;5012420;28;20041;-57
2022/10/17 02:10:41;;;;;;;33.03;5.43;;;;;;;19.27;100.00;98465.25;5013753;28;20027;-60
2022/10/17 02:13:34;;;;;;;38.33;6.28;;;;;;;19.53;100.00;98454.66;5009912;28;20022;-57
2022/10/17 02:16:37;;;;;;;34.75;5.75;;;;;;;19.39;100.00;98453.84;5011451;28;20037;-57
2022/10/17 02:19:02;;;;;;;;;;;;;;;19.18;100.00;98455.31;5014970;28;20021;-59
2022/10/17 02:21:35;;;;;;;32.45;5.47;;;;;;;19.33;100.00;98458.69;5013453;28;19943;-57
2022/10/17 02:24:36;;;;;;;41.63;6.07;;;;;;;18.49;100.00;98459.00;5012543;28;20030;-57
2022/10/17 02:27:10;;;;;;;41.00;6.20;;;;;;;19.28;100.00;98459.03;5009776;28;20148;-58
2022/10/17 02:29:48;;;;;;;31.15;5.28;;;;;;;19.76;100.00;98456.56;5013345;28;20021;-59
2022/10/17 02:32:25;;;;;;;32.92;5.57;;;;;;;19.54;100.00;98451.06;5010429;28;20040;-57
2022/10/17 02:34:55;;;;;;;34.38;5.53;;;;;;;18.88;100.00;98459.13;5014965;28;20057;-57
2022/10/17 02:37:26;;;;;;;37.38;5.80;;;;;;;18.84;100.00;98460.28;5010379;28;20423;-58
2022/10/17 02:39:55;;;;;;;46.38;6.40;;;;;;;19.01;100.00;98454.69;5013483;28;20075;-56
2022/10/17 02:42:23;;;;;;;31.08;4.93;;;;;;;19.70;100.00;98454.31;5010593;28;20450;-59
2022/10/17 02:44:49;;;;;;;29.92;5.10;;;;;;;19.81;100.00;98459.72;5012327;28;20033;-58
2022/10/17 02:47:26;;;;;;;29.48;5.13;;;;;;;19.49;100.00;98456.69;5012565;28;20052;-56
2022/10/17 02:49:54;;;;;;;43.20;6.70;;;;;;;19.06;100.00;98463.16;5011418;28;20483;-57
2022/10/17 02:52:22;;;;;;;34.53;5.78;;;;;;;19.18;100.00;98461.44;5013295;28;20921;-58
2022/10/17 02:54:57;;;;;;;32.03;5.40;;;;;;;19.40;100.00;98455.50;5012425;28;20640;-56
2022/10/17 02:57:28;;;;;;;36.47;5.53;;;;;;;19.71;100.00;98458.66;5011300;28;20041;-56
2022/10/17 02:59:57;;;;;;;36.88;5.53;;;;;;;19.70;100.00;98461.41;5011623;28;20036;-57
2022/10/17 03:02:23;;;;;;;32.45;5.05;;;;;;;18.50;100.00;98465.13;5012067;28;20037;-57
2022/10/17 03:04:48;;;;;;;36.40;5.68;;;;;;;19.12;100.00;98468.97;5013343;28;20251;-57
2022/10/17 03:07:14;;;;;;;29.63;4.80;;;;;;;19.51;100.00;98468.00;5014521;28;20041;-56
2022/10/17 03:09:39;;;;;;;48.30;6.75;;;;;;;18.24;100.00;98470.31;5013180;28;20022;-57
2022/10/17 03:12:04;;;;;;;35.20;5.50;;;;;;;19.35;100.00;98478.78;5010980;28;20121;-56
2022/10/17 03:14:30;;;;;;;28.60;4.82;;;;;;;19.42;100.00;98479.22;5014614;28;20112;-57
2022/10/17 03:16:55;;;;;;;33.97;5.93;;;;;;;19.62;100.00;98469.88;5011974;28;20587;-57
2022/10/17 03:19:20;;;;;;;31.83;5.10;;;;;;;19.69;100.00;98471.16;5013258;28;20074;-56
2022/10/17 03:21:46;;;;;;;29.50;5.20;;;;;;;19.62;100.00;98475.19;5011453;28;20455;-56
2022/10/17 03:24:11;;;;;;;35.88;5.68;;;;;;;20.00;100.00;98475.13;5010298;28;20029;-59
2022/10/17 03:26:36;;;;;;;31.45;5.20;;;;;;;19.38;100.00;98481.22;5012815;28;20595;-58
2022/10/17 03:29:02;;;;;;;44.78;6.47;;;;;;;19.02;100.00;98485.47;5013962;28;20022;-58
2022/10/17 03:31:27;;;;;;;26.63;4.60;;;;;;;19.17;100.00;98482.72;5012799;28;20124;-57
2022/10/17 03:33:53;;;;;;;29.08;5.03;;;;;;;19.87;100.00;98486.69;5012944;28;20447;-57
2022/10/17 03:36:19;;;;;;;31.90;5.45;;;;;;;19.17;100.00;98488.88;5012914;28;20068;-60
2022/10/17 03:38:45;;;;;;;25.92;4.78;;;;;;;19.58;100.00;98501.00;5012035;28;20060;-57
2022/10/17 03:41:11;;;;;;;37.72;6.05;;;;;;;19.17;100.00;98498.56;5011993;28;20956;-57
2022/10/17 03:43:36;;;;;;;32.50;5.32;;;;;;;19.55;100.00;98492.44;5011293;28;20025;-56
2022/10/17 03:46:02;;;;;;;33.78;5.78;;;;;;;19.03;100.00;98516.22;5008919;28;20584;-56
2022/10/17 03:48:29;;;;;;;29.13;4.88;;;;;;;19.75;100.00;98505.13;5011647;28;20030;-57
2022/10/17 03:51:07;;;;;;;39.88;6.75;;;;;;;18.15;100.00;98513.16;5010732;28;20160;-57
2022/10/17 03:53:33;;;;;;;30.92;4.80;;;;;;;18.94;100.00;98516.84;5014490;28;20035;-57
2022/10/17 03:56:18;;;;;;;28.52;4.80;;;;;;;19.86;100.00;98519.44;5010980;28;20136;-56
2022/10/17 03:58:44;;;;;;;29.02;5.07;;;;;;;19.52;100.00;98519.97;5014285;28;20423;-56
2022/10/17 04:01:11;;;;;;;39.47;5.60;;;;;;;19.28;100.00;98525.16;5013356;28;20041;-58
2022/10/17 04:03:37;;;;;;;34.33;5.68;;;;;;;18.69;100.00;98523.75;5013867;28;20484;-57
2022/10/17 04:06:04;;;;;;;37.88;5.93;;;;;;;19.43;100.00;98529.38;5013407;28;20033;-56
2022/10/17 04:08:30;;;;;;;41.05;6.07;;;;;;;18.66;100.00;98533.66;5011325;28;20096;-56
2022/10/17 04:11:00;;;;;;;28.08;5.05;;;;;;;18.01;100.00;98535.16;5010480;28;20052;-57
2022/10/17 04:13:25;;;;;;;34.88;5.82;;;;;;;18.76;100.00;98533.91;5011742;28;20033;-56
2022/10/17 04:15:55;;;;;;;35.75;5.68;;;;;;;18.80;100.00;98532.75;5012013;28;20088;-56
2022/10/17 04:18:20;;;;;;;35.05;5.70;;;;;;;19.39;100.00;98533.19;5010406;28;20022;-59
2022/10/17 04:20:45;;;;;;;33.92;5.85;;;;;;;19.18;100.00;98537.31;5012545;28;20041;-56
2022/10/17 04:23:11;;;;;;;29.33;5.25;;;;;;;19.39;100.00;98534.97;5013643;28;20025;-57
2022/10/17 04:25:36;;;;;;;30.13;5.68;;;;;;;18.56;100.00;98536.03;5013289;28;20038;-56
2022/10/17 04:28:01;;;;;;;38.45;6.15;;;;;;;18.92;100.00;98534.59;5012307;28;20819;-57
2022/10/17 04:30:27;;;;;;;35.30;5.47;;;;;;;19.44;100.00;98536.34;5013743;28;20034;-56
2022/10/17 04:32:53;;;;;;;34.53;6.45;;;;;;;18.68;100.00;98537.88;5011504;28;20032;-58
2022/10/17 04:35:18;;;;;;;39.70;6.15;;;;;;;18.95;100.00;98533.53;5010376;28;20384;-56
2022/10/17 04:37:43;;;;;;;48.22;6.50;;;;;;;18.82;100.00;98534.38;5011812;28;20517;-55
2022/10/17 04:40:09;;;;;;;38.75;6.03;;;;;;;19.02;100.00;98541.00;5011329;28;20036;-55
2022/10/17 04:42:34;;;;;;;35.45;6.47;;;;;;;18.67;100.00;98538.84;5011659;28;20088;-57
2022/10/17 04:45:00;;;;;;;32.05;5.28;;;;;;;18.50;100.00;98528.53;5010359;28;20033;-57
2022/10/17 04:47:25;;;;;;;25.05;4.60;;;;;;;19.22;100.00;98530.84;5010477;28;20107;-57
2022/10/17 04:49:50;;;;;;;53.80;7.38;;;;;;;19.29;100.00;98540.06;5012209;28;20084;-58
2022/10/17 04:52:16;;;;;;;39.22;6.35;;;;;;;18.48;100.00;98536.53;5011335;28;20605;-59
2022/10/17 04:54:41;;;;;;;34.28;5.93;;;;;;;18.58;100.00;98536.81;5010196;28;20055;-56
2022/10/17 04:57:06;;;;;;;32.47;5.72;;;;;;;19.49;100.00;98543.97;5009713;28;20103;-57
2022/10/17 04:59:31;;;;;;;38.85;5.60;;;;;;;19.63;100.00;98545.69;5012989;28;20104;-56
2022/10/17 05:01:57;;;;;;;42.40;6.45;;;;;;;18.65;100.00;98538.09;5007887;28;20493;-55
2022/10/17 05:04:22;;;;;;;32.08;5.15;;;;;;;19.26;100.00;98538.47;5011411;28;20137;-55
2022/10/17 05:06:47;;;;;;;30.60;5.10;;;;;;;19.78;100.00;98538.50;5011673;28;20148;-56
2022/10/17 05:09:13;;;;;;;34.20;5.65;;;;;;;19.37;100.00;98535.09;5012997;28;20112;-56
2022/10/17 05:11:38;;;;;;;39.67;6.25;;;;;;;19.00;100.00;98542.84;5014539;28;20033;-56
2022/10/17 05:14:03;;;;;;;42.38;6.85;;;;;;;18.72;100.00;98548.28;5014759;28;20053;-56
2022/10/17 05:16:29;;;;;;;35.22;6.18;;;;;;;18.91;100.00;98538.19;5015006;28;20057;-58
2022/10/17 05:18:56;;;;;;;30.52;5.43;;;;;;;19.45;100.00;98543.34;5015744;28;20040;-56
2022/10/17 05:21:23;;;;;;;34.88;6.00;;;;;;;18.41;100.00;98552.91;5012434;28;20129;-57
2022/10/17 05:23:49;;;;;;;33.67;5.90;;;;;;;18.64;100.00;98544.34;5015662;28;20079;-58
2022/10/17 05:26:15;;;;;;;34.38;6.32;;;;;;;18.67;100.00;98544.13;5015336;28;20518;-56
2022/10/17 05:28:41;;;;;;;34.95;6.50;;;;;;;18.74;100.00;98551.66;5014833;28;20676;-56
2022/10/17 05:31:08;;;;;;;37.80;7.00;;;;;;;18.97;100.00;98547.53;5014671;28;20088;-56
2022/10/17 05:33:33;;;;;;;32.50;6.85;;;;;;;18.95;100.00;98550.28;5012071;28;20116;-56
2022/10/17 05:35:59;;;;;;;33.38;6.32;;;;;;;19.19;100.00;98552.22;5013884;28;20039;-56
2022/10/17 05:38:25;;;;;;;45.53;8.02;;;;;;;19.10;100.00;98558.09;5013571;28;20037;-56
2022/10/17 05:40:51;;;;;;;34.55;6.20;;;;;;;18.64;100.00;98562.00;5014036;28;20034;-57
2022/10/17 05:43:16;;;;;;;38.17;6.47;;;;;;;19.20;100.00;98561.84;5014237;28;20025;-56
2022/10/17 05:45:41;;;;;;;45.67;6.88;;;;;;;18.63;100.00;98561.13;5014124;28;20500;-55
2022/10/17 05:48:07;;;;;;;43.42;6.55;;;;;;;18.65;100.00;98569.78;5011464;28;20161;-56
2022/10/17 05:50:33;;;;;;;42.17;6.68;;;;;;;18.54;100.00;98574.91;5012743;28;20064;-57
2022/10/17 05:52:59;;;;;;;32.25;5.45;;;;;;;18.41;100.00;98574.88;5013878;28;20116;-56
2022/10/17 05:55:24;;;;;;;38.05;6.43;;;;;;;18.79;100.00;98576.00;5014257;28;20034;-55
2022/10/17 05:57:51;;;;;;;33.08;6.10;;;;;;;18.71;100.00;98572.97;5013979;28;20056;-58
2022/10/17 06:00:17;;;;;;;38.90;6.63;;;;;;;18.33;100.00;98573.69;5014780;28;20052;-55
2022/10/17 06:02:44;;;;;;;46.13;7.13;;;;;;;18.99;100.00;98577.34;5013028;28;20439;-57
2022/10/17 06:05:10;;;;;;;40.70;7.30;;;;;;;18.93;100.00;98585.66;5013038;28;20053;-56
2022/10/17 06:07:35;;;;;;;41.60;7.28;;;;;;;18.89;100.00;98587.66;5014765;28;20040;-56
2022/10/17 06:10:01;;;;;;;34.28;6.65;;;;;;;19.78;100.00;98581.69;5009786;28;20132;-57
2022/10/17 06:12:26;;;;;;;35.55;7.35;;;;;;;19.45;100.00;98585.69;5011932;28;20080;-58
2022/10/17 06:14:51;;;;;;;36.47;7.40;;;;;;;20.46;100.00;98582.22;5015502;28;20021;-55
2022/10/17 06:17:16;;;;;;;34.90;7.47;;;;;;;20.23;100.00;98592.63;5013582;28;20038;-58
2022/10/17 06:19:43;;;;;;;51.95;8.32;;;;;;;19.48;100.00;98594.34;5011248;28;20058;-59
2022/10/17 06:22:09;;;;;;;39.47;6.80;;;;;;;20.30;100.00;98594.88;5012094;28;20086;-57
2022/10/17 06:24:34;;;;;;;33.00;5.88;;;;;;;20.75;100.00;98605.75;5010935;28;20064;-58
2022/10/17 06:26:59;;;;;;;37.88;7.10;;;;;;;20.79;100.00;98596.63;5009812;28;20033;-60
2022/10/17 06:29:25;;;;;;;44.15;8.57;;;;;;;20.84;100.00;98597.13;5011961;28;20079;-58
2022/10/17 06:31:50;;;;;;;60.60;13.98;;;;;;;20.23;100.00;98597.94;5010840;28;20049;-59
2022/10/17 06:34:15;;;;;;;53.13;11.25;;;;;;;20.46;100.00;98608.69;5012998;28;20029;-57
2022/10/17 06:36:41;;;;;;;63.20;14.32;;;;;;;21.59;100.00;98619.00;5010938;28;20091;-56
2022/10/17 06:39:06;;;;;;;34.10;7.43;;;;;;;21.03;100.00;98617.84;5010579;28;20041;-56
2022/10/17 06:41:32;;;;;;;40.67;7.43;;;;;;;21.06;100.00;98628.19;5009638;28;20562;-56
2022/10/17 06:43:57;;;;;;;38.42;7.47;;;;;;;20.92;100.00;98623.94;5009507;28;20022;-58
2022/10/17 06:46:25;;;;;;;31.58;7.57;;;;;;;21.13;100.00;98625.94;5010676;28;20037;-55
2022/10/17 06:48:51;;;;;;;33.70;6.93;;;;;;;21.69;100.00;98626.16;5013899;28;20449;-56
2022/10/17 06:51:16;;;;;;;25.92;6.32;;;;;;;20.37;100.00;98619.97;5012481;28;20794;-57
2022/10/17 06:53:41;;;;;;;30.77;7.38;;;;;;;21.57;100.00;98624.44;5011999;28;20032;-58
2022/10/17 06:56:09;;;;;;;42.47;8.00;;;;;;;20.04;100.00;98624.03;5012683;28;20069;-57
2022/10/17 06:58:39;;;;;;;35.08;6.80;;;;;;;20.90;100.00;98632.97;5017830;28;20406;-57
2022/10/17 07:01:07;;;;;;;39.90;7.60;;;;;;;21.34;100.00;98642.09;5013544;28;20087;-59
2022/10/17 07:03:33;;;;;;;33.65;7.05;;;;;;;21.01;100.00;98637.47;5012631;28;20022;-57
2022/10/17 07:05:58;;;;;;;35.25;7.10;;;;;;;21.87;100.00;98642.50;5010146;28;20057;-60
2022/10/17 07:08:25;;;;;;;37.25;8.38;;;;;;;22.36;100.00;98647.59;5011533;28;20037;-57
2022/10/17 07:10:50;;;;;;;58.85;8.68;;;;;;;24.22;100.00;98645.53;5011451;28;20037;-59
2022/10/17 07:13:17;;;;;;;60.65;9.23;;;;;;;26.48;100.00;98658.78;5014263;28;20071;-58
2022/10/17 07:15:42;;;;;;;37.90;6.82;;;;;;;26.70;100.00;98661.06;5007953;28;20680;-58
2022/10/17 07:18:08;;;;;;;27.92;5.50;;;;;;;27.85;100.00;98666.69;5013663;28;20040;-58
2022/10/17 07:20:34;;;;;;;30.65;5.82;;;;;;;27.76;100.00;98667.66;5009079;28;20119;-59
2022/10/17 07:22:59;;;;;;;29.45;5.80;;;;;;;28.51;100.00;98673.31;5012206;28;20106;-61
2022/10/17 07:25:24;;;;;;;28.42;5.53;;;;;;;29.31;100.00;98675.56;5009834;28;20554;-58
2022/10/17 07:27:51;;;;;;;21.50;4.97;;;;;;;29.35;100.00;98674.25;5011013;28;20055;-57
2022/10/17 07:30:16;;;;;;;25.10;5.20;;;;;;;29.59;96.32;98683.31;5012599;28;20057;-57
2022/10/17 07:32:42;;;;;;;25.25;5.28;;;;;;;30.84;89.00;98678.38;5013926;28;20121;-58
2022/10/17 07:35:09;;;;;;;23.33;5.00;;;;;;;31.03;78.36;98684.38;5012421;28;20025;-58
2022/10/17 07:37:36;;;;;;;30.70;6.03;;;;;;;31.73;72.25;98682.53;5011799;28;20029;-60
2022/10/17 07:40:03;;;;;;;26.60;5.68;;;;;;;30.79;67.71;98677.19;5008648;28;20029;-57
2022/10/17 07:42:28;;;;;;;16.77;4.78;;;;;;;31.88;65.99;98672.59;5011261;28;20518;-59
2022/10/17 07:44:54;;;;;;;25.00;5.32;;;;;;;32.05;67.77;98671.44;5011814;28;20061;-58
2022/10/17 07:47:20;;;;;;;22.77;4.80;;;;;;;32.77;63.05;98675.38;5010787;28;20496;-57
2022/10/17 07:49:45;;;;;;;28.70;5.70;;;;;;;33.70;57.93;98685.50;5011007;28;20025;-58
2022/10/17 07:52:12;;;;;;;20.75;4.70;;;;;;;34.92;53.71;98686.91;5011807;28;20061;-57
2022/10/17 07:54:37;;;;;;;24.05;5.40;;;;;;;33.33;56.86;98682.03;5012562;28;20436;-60
2022/10/17 07:57:03;;;;;;;24.85;5.45;;;;;;;30.43;64.15;98678.53;5010626;28;20041;-60
2022/10/17 07:59:28;;;;;;;21.15;5.28;;;;;;;29.19;73.72;98669.69;5012419;28;20036;-60
2022/10/17 08:01:55;;;;;;;24.38;5.65;;;;;;;29.75;74.25;98667.22;5010485;28;20053;-59
2022/10/17 08:04:20;;;;;;;19.00;4.80;;;;;;;29.14;75.92;98666.66;5008227;28;20041;-60
2022/10/17 08:06:45;;;;;;;22.13;5.05;;;;;;;30.56;70.68;98669.91;5011536;28;20045;-58
2022/10/17 08:09:11;;;;;;;19.88;4.88;;;;;;;30.27;75.18;98670.47;5011867;28;20053;-59
2022/10/17 08:11:37;;;;;;;18.25;4.75;;;;;;;30.21;71.96;98673.88;5011431;28;20041;-58
2022/10/17 08:14:02;;;;;;;21.52;4.78;;;;;;;30.52;70.50;98685.56;5011300;28;20017;-57
2022/10/17 08:16:28;;;;;;;20.45;5.00;;;;;;;31.15;70.80;98680.22;5011591;28;20124;-58
2022/10/17 08:18:53;;;;;;;19.00;4.65;;;;;;;33.76;57.88;98684.72;5012682;28;20034;-59
2022/10/17 08:21:18;;;;;;;17.35;4.60;;;;;;;35.14;53.53;98688.44;5010778;28;20576;-58
2022/10/17 08:23:44;;;;;;;19.33;4.45;;;;;;;34.78;51.03;98693.31;5011482;28;20030;-57
2022/10/17 08:26:12;;;;;;;16.58;4.35;;;;;;;36.32;48.50;98683.50;5011467;28;20403;-59
2022/10/17 08:28:38;;;;;;;15.23;4.00;;;;;;;33.06;54.61;98679.00;5009550;28;20144;-59
2022/10/17 08:31:06;;;;;;;21.63;4.78;;;;;;;30.53;66.32;98675.63;5010825;28;20044;-60
2022/10/17 08:33:32;;;;;;;15.48;4.47;;;;;;;31.50;66.16;98677.97;5013317;28;20467;-59
2022/10/17 08:35:58;;;;;;;12.35;3.90;;;;;;;31.55;64.45;98683.69;5011762;28;20705;-61
2022/10/17 08:38:24;;;;;;;18.25;4.57;;;;;;;30.72;71.08;98685.16;5013245;28;20128;-61
2022/10/17 08:40:50;;;;;;;16.50;4.30;;;;;;;33.95;57.41;98686.75;5011251;28;20137;-58
2022/10/17 08:43:32;;;;;;;21.05;5.10;;;;;;;32.64;61.97;98675.19;5009849;28;20026;-58
2022/10/17 08:46:01;;;;;;;18.35;4.57;;;;;;;32.95;62.01;98666.00;5014216;28;20515;-58
2022/10/17 08:48:30;;;;;;;17.73;4.53;;;;;;;34.20;54.76;98675.50;5016152;28;20224;-58
2022/10/17 08:51:08;;;;;;;14.02;4.07;;;;;;;35.62;52.04;98683.94;5016636;28;20049;-59
2022/10/17 08:53:51;;;;;;;19.13;4.75;;;;;;;32.17;57.52;98671.00;5012928;28;20030;-60
2022/10/17 08:56:41;;;;;;;13.55;4.00;;;;;;;33.36;56.38;98674.38;5014387;28;20046;-58
2022/10/17 08:59:28;;;;;;;15.40;4.32;;;;;;;36.01;49.45;98683.13;5013937;28;20038;-62
2022/10/17 09:02:02;;;;;;;14.88;4.50;;;;;;;34.08;52.84;98671.63;5013911;28;20057;-61
2022/10/17 09:04:56;;;;;;;17.60;4.70;;;;;;;35.94;50.62;98681.47;5014998;28;20084;-57
2022/10/17 09:07:33;;;;;;;14.60;4.45;;;;;;;36.50;47.94;98663.81;5015029;28;20042;-58
2022/10/17 09:10:04;;;;;;;11.90;4.20;;;;;;;35.47;49.06;98674.13;5012389;28;20082;-58
2022/10/17 09:12:57;;;;;;;16.95;4.68;;;;;;;37.59;45.46;98667.44;5014225;28;20080;-58
2022/10/17 09:15:41;;;;;;;15.52;4.28;;;;;;;37.41;45.35;98671.75;5013167;28;20029;-58
2022/10/17 09:18:12;;;;;;;15.35;4.75;;;;;;;35.40;47.89;98661.59;5016701;28;20041;-57
2022/10/17 09:20:50;;;;;;;28.17;5.55;;;;;;;35.27;48.94;98659.69;5012798;28;20494;-58
2022/10/17 09:23:21;;;;;;;15.85;4.57;;;;;;;36.19;48.98;98651.78;5015948;28;20050;-58
2022/10/17 09:25:51;;;;;;;21.37;5.83;;;;;;;34.77;49.07;98654.53;5015487;28;20037;-59
2022/10/17 09:28:31;;;;;;;12.93;4.50;;;;;;;36.32;46.83;98656.34;5016087;28;20385;-58
2022/10/17 09:31:31;;;;;;;16.73;4.85;;;;;;;37.14;42.43;98659.34;5012896;28;20045;-58
2022/10/17 09:34:00;;;;;;;22.27;5.25;;;;;;;36.22;44.00;98651.38;5011268;28;20041;-58
2022/10/17 09:36:31;;;;;;;18.95;4.68;;;;;;;37.36;39.89;98647.09;5015432;28;20030;-58
2022/10/17 09:38:59;;;;;;;23.80;5.22;;;;;;;34.97;46.60;98651.91;5013096;28;20029;-59
2022/10/17 09:41:40;;;;;;;15.43;4.40;;;;;;;36.87;46.02;98648.63;5015037;28;20570;-59
2022/10/17 09:44:34;;;;;;;15.35;4.78;;;;;;;35.05;46.31;98654.44;5014440;28;20026;-58
2022/10/17 09:47:24;;;;;;;17.33;4.90;;;;;;;37.56;43.14;98649.66;5014256;28;20037;-61
2022/10/17 09:49:50;;;;;;;23.77;5.55;;;;;;;36.31;43.88;98649.25;5013416;28;20551;-59
2022/10/17 09:52:17;;;;;;;18.33;4.65;;;;;;;33.29;54.99;98651.84;5014365;28;20831;-59
2022/10/17 09:54:54;;;;;;;17.90;4.93;;;;;;;35.70;48.21;98653.94;5013424;28;20030;-61
2022/10/17 09:57:20;;;;;;;122.40;9.82;;;;;;;34.45;49.76;98656.06;5009676;28;20033;-59
2022/10/17 09:59:55;;;;;;;251.10;15.75;;;;;;;33.68;51.77;98661.34;5014907;28;20144;-58
2022/10/17 10:02:22;;;;;;;14.70;4.47;;;;;;;37.35;45.42;98648.16;5014628;28;20053;-58
2022/10/17 10:05:17;;;;;;;17.02;4.63;;;;;;;33.97;51.84;98654.91;5012213;28;20072;-58
2022/10/17 10:07:59;;;;;;;16.05;4.97;;;;;;;34.50;50.77;98664.41;5011487;28;20045;-59
2022/10/17 10:10:27;;;;;;;13.65;4.90;;;;;;;34.22;52.52;98662.59;5015936;28;20033;-58
2022/10/17 10:13:15;;;;;;;17.13;4.60;;;;;;;35.69;49.37;98657.69;5014485;28;20031;-59
2022/10/17 10:15:44;;;;;;;18.55;4.93;;;;;;;35.65;48.42;98656.41;5013687;28;20033;-59
2022/10/17 10:18:24;;;;;;;15.30;4.90;;;;;;;33.76;52.72;98653.09;5014171;28;20029;-62
2022/10/17 10:21:09;;;;;;;16.80;5.40;;;;;;;35.29;49.24;98647.63;5011917;28;20045;-58
2022/10/17 10:23:39;;;;;;;19.25;5.28;;;;;;;34.65;47.42;98651.56;5013646;28;20017;-61
2022/10/17 10:26:21;;;;;;;16.42;5.28;;;;;;;31.40;53.16;98645.03;5015365;28;20053;-58
2022/10/17 10:29:24;;;;;;;16.80;5.22;;;;;;;33.33;49.44;98644.19;5014421;28;20053;-61
2022/10/17 10:31:51;;;;;;;17.00;5.53;;;;;;;32.63;52.32;98641.13;5013714;28;20580;-60
2022/10/17 10:34:21;;;;;;;20.02;5.68;;;;;;;34.26;48.84;98647.66;5014084;28;20270;-61
2022/10/17 10:36:52;;;;;;;16.45;4.80;;;;;;;34.64;45.00;98651.75;5011631;28;20056;-58
2022/10/17 10:39:32;;;;;;;18.73;5.47;;;;;;;34.34;46.78;98646.63;5013169;28;20699;-59
2022/10/17 10:41:59;;;;;;;15.93;5.03;;;;;;;34.28;46.74;98640.16;5010567;28;20308;-58
2022/10/17 10:44:27;;;;;;;21.58;6.43;;;;;;;33.41;49.95;98638.63;5013767;28;20029;-58
2022/10/17 10:47:21;;;;;;;17.67;5.07;;;;;;;34.19;48.53;98641.34;5012599;28;20112;-59
2022/10/17 10:49:49;;;;;;;23.73;6.07;;;;;;;33.51;48.80;98628.31;5014836;28;20041;-58
2022/10/17 10:52:37;;;;;;;16.30;5.28;;;;;;;32.41;55.51;98624.81;5012732;28;20040;-58
2022/10/17 10:55:14;;;;;;;21.00;5.70;;;;;;;34.54;49.40;98625.88;5011701;28;20018;-61
2022/10/17 10:57:43;;;;;;;19.65;5.88;;;;;;;33.67;49.62;98626.38;5013334;28;20168;-58
2022/10/17 11:00:16;;;;;;;22.95;5.88;;;;;;;34.26;49.86;98634.09;5013013;28;20044;-61
2022/10/17 11:03:15;;;;;;;19.15;5.38;;;;;;;33.27;51.48;98626.00;5011577;28;20033;-59
2022/10/17 11:05:49;;;;;;;20.35;5.55;;;;;;;32.80;53.72;98620.94;5012597;28;20049;-59
2022/10/17 11:08:51;;;;;;;18.35;5.38;;;;;;;33.78;52.81;98623.13;5013475;28;20066;-59
2022/10/17 11:11:22;;;;;;;22.30;5.55;;;;;;;33.90;51.53;98616.16;4977939;28;20041;-60
2022/10/17 11:13:58;;;;;;;22.35;5.43;;;;;;;33.26;51.06;98614.38;5011998;28;20824;-59
2022/10/17 11:16:38;;;;;;;16.73;5.30;;;;;;;34.25;49.44;98608.06;5013300;28;20395;-58
2022/10/17 11:19:23;;;;;;;20.95;6.00;;;;;;;33.38;51.49;98606.56;5013061;28;20021;-61
2022/10/17 11:22:13;;;;;;;17.85;5.00;;;;;;;32.85;53.07;98599.59;5012017;28;20088;-58
2022/10/17 11:24:47;;;;;;;18.95;5.28;;;;;;;32.56;54.10;98597.78;5014850;28;20029;-61
2022/10/17 11:27:13;;;;;;;30.50;6.68;;;;;;;31.16;60.40;98590.31;5013851;28;20619;-60
2022/10/17 11:29:40;;;;;;;24.27;6.63;;;;;;;32.14;56.84;98590.41;5007885;28;20025;-58
2022/10/17 11:32:41;;;;;;;48.15;7.53;;;;;;;32.72;55.93;98599.47;5011092;28;20120;-58
2022/10/17 11:35:17;;;;;;;41.47;7.22;;;;;;;32.33;57.40;98597.94;5010594;28;20782;-58